createdAt,value
2019-06-26T00:00:51.257Z,14.73
2019-06-26T00:03:18.806Z,15.67
2019-06-26T00:05:45.937Z,14.50
2019-06-26T00:08:13.184Z,14.63
2019-06-26T00:10:40.328Z,13.40
2019-06-26T00:13:07.532Z,14.27
2019-06-26T00:15:34.677Z,14.10
2019-06-26T00:18:01.903Z,13.30
2019-06-26T00:20:29.055Z,14.60
2019-06-26T00:23:01.592Z,14.87
2019-06-26T00:25:28.708Z,14.87
2019-06-26T00:27:56.058Z,17.77
2019-06-26T00:30:23.191Z,15.50
2019-06-26T00:32:50.423Z,15.43
2019-06-26T00:35:17.666Z,15.27
2019-06-26T00:37:44.993Z,14.73
2019-06-26T00:40:13.124Z,15.37
2019-06-26T00:42:40.356Z,14.90
2019-06-26T00:45:07.784Z,15.17
2019-06-26T00:47:35.161Z,16.07
2019-06-26T00:50:03.397Z,15.27
2019-06-26T00:52:31.047Z,14.97
2019-06-26T00:54:58.181Z,14.13
2019-06-26T00:57:25.317Z,14.90
2019-06-26T00:59:52.560Z,16.07
2019-06-26T01:02:19.893Z,15.57
2019-06-26T01:04:48.953Z,15.70
2019-06-26T01:07:16.296Z,15.20
2019-06-26T01:09:43.582Z,14.70
2019-06-26T01:12:10.801Z,15.93
2019-06-26T01:14:38.028Z,15.40
2019-06-26T01:17:05.372Z,16.50
2019-06-26T01:19:32.913Z,15.70
2019-06-26T01:22:00.046Z,17.87
2019-06-26T01:24:27.383Z,14.13
2019-06-26T01:26:54.727Z,15.93
2019-06-26T01:29:21.982Z,15.40
2019-06-26T01:31:49.317Z,16.27
2019-06-26T01:34:16.446Z,17.00
2019-06-26T01:36:43.694Z,16.07
2019-06-26T01:39:10.931Z,16.60
2019-06-26T01:41:38.388Z,16.60
2019-06-26T01:44:14.635Z,16.93
2019-06-26T01:46:34.780Z,16.60
2019-06-26T01:49:01.921Z,16.23
2019-06-26T01:51:29.144Z,17.70
2019-06-26T01:53:56.312Z,17.23
2019-06-26T01:56:23.546Z,17.13
2019-06-26T01:58:50.776Z,17.23
2019-06-26T02:01:18.137Z,15.60
2019-06-26T02:03:46.092Z,17.97
2019-06-26T02:06:13.445Z,15.97
2019-06-26T02:08:40.694Z,16.70
2019-06-26T02:11:08.036Z,16.57
2019-06-26T02:13:35.256Z,16.77
2019-06-26T02:16:02.594Z,17.03
2019-06-26T02:18:40.163Z,16.50
2019-06-26T02:21:07.524Z,18.00
2019-06-26T02:23:34.775Z,17.73
2019-06-26T02:26:01.970Z,17.27
2019-06-26T02:28:29.256Z,17.73
2019-06-26T02:30:56.627Z,17.57
2019-06-26T02:33:23.956Z,18.90
2019-06-26T02:35:51.402Z,19.00
2019-06-26T02:38:18.538Z,20.27
2019-06-26T02:40:45.879Z,18.40
2019-06-26T02:43:13.733Z,17.37
2019-06-26T02:45:40.914Z,18.73
2019-06-26T02:48:08.161Z,17.90
2019-06-26T02:50:35.378Z,18.33
2019-06-26T02:53:02.716Z,18.50
2019-06-26T02:55:29.957Z,18.07
2019-06-26T02:57:57.100Z,18.77
2019-06-26T03:00:24.328Z,17.77
2019-06-26T03:02:51.563Z,19.10
2019-06-26T03:05:18.696Z,18.57
2019-06-26T03:07:45.932Z,19.10
2019-06-26T03:10:13.963Z,19.20
2019-06-26T03:12:41.195Z,19.53
2019-06-26T03:15:09.852Z,18.43
2019-06-26T03:17:51.019Z,19.13
2019-06-26T03:20:07.463Z,20.40
2019-06-26T03:22:34.697Z,20.03
2019-06-26T03:25:02.014Z,20.00
2019-06-26T03:27:29.215Z,21.63
2019-06-26T03:29:56.359Z,19.80
2019-06-26T03:32:23.497Z,21.20
2019-06-26T03:34:50.752Z,20.23
2019-06-26T03:37:17.997Z,19.97
2019-06-26T03:39:45.126Z,16.83
2019-06-26T03:42:12.589Z,20.27
2019-06-26T03:44:39.723Z,19.83
2019-06-26T03:47:06.861Z,18.03
2019-06-26T03:49:34.097Z,21.50
2019-06-26T03:52:01.428Z,21.80
2019-06-26T03:54:28.662Z,22.10
2019-06-26T03:56:56.009Z,21.90
2019-06-26T03:59:23.260Z,20.43
2019-06-26T04:01:50.485Z,19.93
2019-06-26T04:04:17.617Z,20.13
2019-06-26T04:06:44.741Z,18.97
2019-06-26T04:09:11.893Z,18.40
2019-06-26T04:11:39.128Z,19.53
2019-06-26T04:14:06.771Z,19.47
2019-06-26T04:16:34.006Z,19.67
2019-06-26T04:19:01.123Z,19.77
2019-06-26T04:21:28.358Z,19.83
2019-06-26T04:23:55.586Z,18.77
2019-06-26T04:26:22.842Z,18.60
2019-06-26T04:28:50.041Z,21.13
2019-06-26T04:31:17.173Z,18.87
2019-06-26T04:33:44.335Z,18.80
2019-06-26T04:36:11.617Z,18.13
2019-06-26T04:38:38.950Z,17.37
2019-06-26T04:41:06.093Z,20.13
2019-06-26T04:43:33.590Z,19.60
2019-06-26T04:46:00.847Z,18.97
2019-06-26T04:48:27.977Z,17.87
2019-06-26T04:50:55.336Z,19.00
2019-06-26T04:53:22.564Z,18.10
2019-06-26T04:55:49.803Z,17.80
2019-06-26T04:58:16.951Z,17.83
2019-06-26T05:00:44.182Z,17.20
2019-06-26T05:03:11.607Z,16.40
2019-06-26T05:05:40.130Z,15.13
2019-06-26T05:08:07.471Z,15.87
2019-06-26T05:10:34.643Z,16.40
2019-06-26T05:13:01.794Z,17.47
2019-06-26T05:15:28.928Z,15.70
2019-06-26T05:17:56.281Z,14.87
2019-06-26T05:20:23.493Z,14.20
2019-06-26T05:22:50.833Z,15.20
2019-06-26T05:25:18.285Z,13.80
2019-06-26T05:27:55.384Z,13.23
2019-06-26T05:30:23.414Z,12.93
2019-06-26T05:32:50.904Z,12.90
2019-06-26T05:35:18.631Z,12.87
2019-06-26T05:37:45.780Z,13.53
2019-06-26T05:40:14.106Z,12.43
2019-06-26T05:42:41.462Z,11.97
2019-06-26T05:45:11.695Z,12.17
2019-06-26T05:47:39.014Z,11.83
2019-06-26T05:50:08.878Z,11.40
2019-06-26T05:52:36.334Z,12.23
2019-06-26T05:55:04.256Z,11.50
2019-06-26T05:57:31.480Z,12.07
2019-06-26T05:59:58.927Z,12.10
2019-06-26T06:02:26.057Z,12.50
2019-06-26T06:04:53.483Z,11.53
2019-06-26T06:07:20.627Z,13.00
2019-06-26T06:09:47.974Z,11.30
2019-06-26T06:12:15.099Z,12.23
2019-06-26T06:14:42.238Z,12.50
2019-06-26T06:17:09.563Z,10.33
2019-06-26T06:19:36.809Z,11.97
2019-06-26T06:22:04.060Z,12.67
2019-06-26T06:24:31.308Z,11.13
2019-06-26T06:26:58.468Z,12.70
2019-06-26T06:29:25.601Z,11.87
2019-06-26T06:31:52.925Z,11.07
2019-06-26T06:34:20.080Z,11.17
2019-06-26T06:36:47.240Z,10.57
2019-06-26T06:39:14.358Z,11.47
2019-06-26T06:41:43.428Z,12.13
2019-06-26T06:44:10.660Z,12.30
2019-06-26T06:46:37.805Z,12.67
2019-06-26T06:49:05.048Z,12.43
2019-06-26T06:51:32.267Z,12.37
2019-06-26T06:53:59.438Z,12.50
2019-06-26T06:56:26.835Z,12.90
2019-06-26T06:58:54.093Z,11.73
2019-06-26T07:01:21.323Z,12.83
2019-06-26T07:03:48.554Z,13.43
2019-06-26T07:06:15.821Z,12.53
2019-06-26T07:08:42.945Z,14.37
2019-06-26T07:11:10.064Z,12.43
2019-06-26T07:13:37.895Z,11.10
2019-06-26T07:16:12.477Z,12.53
2019-06-26T07:18:42.226Z,12.17
2019-06-26T07:21:12.221Z,12.03
2019-06-26T07:23:39.519Z,10.90
2019-06-26T07:26:06.979Z,13.03
2019-06-26T07:28:34.104Z,10.33
2019-06-26T07:31:01.342Z,10.60
2019-06-26T07:33:29.497Z,10.33
2019-06-26T07:36:00.302Z,11.43
2019-06-26T07:38:30.413Z,9.80
2019-06-26T07:40:57.636Z,11.00
2019-06-26T07:43:24.787Z,12.37
2019-06-26T07:45:52.022Z,12.70
2019-06-26T07:48:19.169Z,9.77
2019-06-26T07:50:46.312Z,11.20
2019-06-26T07:53:13.438Z,8.50
2019-06-26T07:55:44.720Z,10.33
2019-06-26T07:58:11.846Z,13.53
2019-06-26T08:00:39.093Z,9.80
2019-06-26T08:03:06.323Z,10.17
2019-06-26T08:05:33.669Z,10.43
2019-06-26T08:08:01.023Z,11.20
2019-06-26T08:10:28.275Z,11.00
2019-06-26T08:12:55.382Z,10.10
2019-06-26T08:15:22.709Z,9.20
2019-06-26T08:17:59.897Z,10.50
2019-06-26T08:20:19.189Z,9.33
2019-06-26T08:22:46.306Z,9.90
2019-06-26T08:25:13.935Z,10.53
2019-06-26T08:27:41.280Z,9.77
2019-06-26T08:30:09.036Z,10.50
2019-06-26T08:32:36.241Z,9.67
2019-06-26T08:35:04.067Z,10.27
2019-06-26T08:37:36.150Z,10.10
2019-06-26T08:40:04.907Z,9.37
2019-06-26T08:42:32.053Z,14.63
2019-06-26T08:44:59.211Z,10.07
2019-06-26T08:47:26.457Z,10.20
2019-06-26T08:49:53.586Z,9.80
2019-06-26T08:52:21.119Z,9.20
2019-06-26T08:54:48.465Z,9.50
2019-06-26T08:57:15.621Z,9.90
2019-06-26T08:59:42.848Z,10.03
2019-06-26T09:02:10.206Z,10.00
2019-06-26T09:04:37.421Z,10.20
2019-06-26T09:07:04.678Z,9.23
2019-06-26T09:09:31.912Z,9.57
2019-06-26T09:11:59.132Z,8.93
2019-06-26T09:14:26.268Z,8.97
2019-06-26T09:16:53.513Z,12.30
2019-06-26T09:19:25.366Z,9.53
2019-06-26T09:21:52.619Z,11.30
2019-06-26T09:24:19.761Z,11.10
2019-06-26T09:26:47.081Z,8.20
2019-06-26T09:29:14.241Z,8.17
2019-06-26T09:31:41.447Z,9.50
2019-06-26T09:34:08.683Z,11.40
2019-06-26T09:36:35.834Z,8.30
2019-06-26T09:39:05.482Z,8.37
2019-06-26T09:41:32.615Z,8.60
2019-06-26T09:43:59.752Z,8.90
2019-06-26T09:46:27.065Z,8.10
2019-06-26T09:48:54.304Z,9.37
2019-06-26T09:51:21.668Z,10.30
2019-06-26T09:53:48.895Z,7.63
2019-06-26T09:56:16.029Z,6.70
2019-06-26T09:58:43.392Z,9.70
2019-06-26T10:01:10.820Z,9.43
2019-06-26T10:03:37.959Z,7.57
2019-06-26T10:06:05.293Z,6.00
2019-06-26T10:08:32.431Z,6.60
2019-06-26T10:10:59.566Z,8.08
2019-06-26T10:13:26.791Z,7.42
2019-06-26T10:15:54.015Z,7.00
2019-06-26T10:18:21.255Z,6.85
2019-06-26T10:20:48.526Z,6.28
2019-06-26T10:23:32.255Z,6.10
2019-06-26T10:25:59.391Z,9.83
2019-06-26T10:28:26.742Z,6.87
2019-06-26T10:30:54.366Z,6.25
2019-06-26T10:33:21.670Z,5.62
2019-06-26T10:35:49.018Z,6.05
2019-06-26T10:38:16.549Z,9.88
2019-06-26T10:40:43.868Z,9.43
2019-06-26T10:43:11.027Z,6.60
2019-06-26T10:45:43.438Z,5.75
2019-06-26T10:48:10.851Z,7.62
2019-06-26T10:50:47.931Z,6.90
2019-06-26T10:53:07.135Z,6.17
2019-06-26T10:55:34.621Z,9.23
2019-06-26T10:58:01.774Z,9.18
2019-06-26T11:00:30.905Z,6.45
2019-06-26T11:02:58.265Z,6.60
2019-06-26T11:05:25.692Z,6.65
2019-06-26T11:07:52.928Z,7.47
2019-06-26T11:10:20.606Z,6.55
2019-06-26T11:12:49.089Z,11.12
2019-06-26T11:15:17.291Z,5.60
2019-06-26T11:17:44.499Z,7.15
2019-06-26T11:20:12.061Z,5.80
2019-06-26T11:22:39.196Z,5.67
2019-06-26T11:25:07.266Z,8.23
2019-06-26T11:27:40.023Z,6.55
2019-06-26T11:30:08.484Z,7.58
2019-06-26T11:32:35.812Z,5.67
2019-06-26T11:35:04.169Z,6.60
2019-06-26T11:37:31.396Z,6.83
2019-06-26T11:39:58.528Z,6.75
2019-06-26T11:42:25.846Z,5.80
2019-06-26T11:44:52.993Z,5.35
2019-06-26T11:47:20.108Z,7.45
2019-06-26T11:49:59.346Z,9.68
2019-06-26T11:52:17.580Z,7.15
2019-06-26T11:54:44.817Z,11.55
2019-06-26T11:57:11.955Z,5.28
2019-06-26T11:59:39.418Z,7.35
2019-06-26T12:02:07.357Z,4.97
2019-06-26T12:04:34.476Z,4.83
2019-06-26T12:07:01.712Z,8.08
2019-06-26T12:09:28.877Z,6.72
2019-06-26T12:11:56.304Z,6.05
2019-06-26T12:14:23.581Z,8.10
2019-06-26T12:16:51.053Z,7.90
2019-06-26T12:19:22.331Z,8.83
2019-06-26T12:21:47.306Z,5.90
2019-06-26T12:24:14.559Z,7.40
2019-06-26T12:26:41.774Z,8.53
2019-06-26T12:29:09.004Z,8.25
2019-06-26T12:31:36.142Z,6.72
2019-06-26T12:34:03.687Z,6.97
2019-06-26T12:36:30.897Z,9.03
2019-06-26T12:38:58.137Z,7.45
2019-06-26T12:41:25.266Z,5.53
2019-06-26T12:43:52.585Z,6.72
2019-06-26T12:46:19.825Z,8.40
2019-06-26T12:48:47.086Z,6.33
2019-06-26T12:51:14.419Z,9.40
2019-06-26T12:53:41.657Z,7.58
2019-06-26T12:56:08.891Z,8.93
2019-06-26T12:58:36.238Z,6.45
2019-06-26T13:01:03.583Z,6.62
2019-06-26T13:03:30.686Z,6.15
2019-06-26T13:05:57.925Z,7.37
2019-06-26T13:08:25.270Z,6.17
2019-06-26T13:10:52.576Z,5.67
2019-06-26T13:13:19.795Z,9.08
2019-06-26T13:15:50.803Z,6.72
2019-06-26T13:18:16.203Z,7.42
2019-06-26T13:20:52.754Z,10.00
2019-06-26T13:23:14.860Z,6.25
2019-06-26T13:25:41.853Z,10.03
2019-06-26T13:28:09.202Z,6.37
2019-06-26T13:30:37.845Z,6.72
2019-06-26T13:33:05.225Z,7.58
2019-06-26T13:35:32.357Z,9.13
2019-06-26T13:37:59.487Z,8.13
2019-06-26T13:40:26.713Z,6.15
2019-06-26T13:42:53.941Z,7.15
2019-06-26T13:45:30.542Z,6.53
2019-06-26T13:47:57.337Z,10.15
2019-06-26T13:50:24.673Z,8.33
2019-06-26T13:52:52.049Z,10.23
2019-06-26T13:55:19.399Z,8.00
2019-06-26T13:57:46.630Z,9.63
2019-06-26T14:00:15.774Z,6.55
2019-06-26T14:02:43.109Z,12.82
2019-06-26T14:05:12.329Z,8.03
2019-06-26T14:07:40.487Z,7.90
2019-06-26T14:10:09.969Z,7.28
2019-06-26T14:12:37.411Z,7.75
2019-06-26T14:15:05.573Z,9.70
2019-06-26T14:17:32.803Z,7.35
2019-06-26T14:19:59.970Z,6.87
2019-06-26T14:22:27.201Z,8.20
2019-06-26T14:24:54.482Z,7.97
2019-06-26T14:27:21.570Z,8.63
2019-06-26T14:29:49.474Z,7.58
2019-06-26T14:32:16.713Z,7.58
2019-06-26T14:34:43.981Z,9.58
2019-06-26T14:37:11.130Z,9.53
2019-06-26T14:39:40.926Z,8.13
2019-06-26T14:42:07.532Z,9.55
2019-06-26T14:44:34.741Z,8.95
2019-06-26T14:47:02.308Z,9.80
2019-06-26T14:49:29.532Z,7.25
2019-06-26T14:51:56.661Z,7.95
2019-06-26T14:54:23.813Z,7.62
2019-06-26T14:56:50.940Z,7.45
2019-06-26T14:59:18.497Z,7.45
2019-06-26T15:01:49.548Z,7.83
2019-06-26T15:04:16.790Z,9.05
2019-06-26T15:06:44.029Z,8.35
2019-06-26T15:09:11.166Z,10.03
2019-06-26T15:11:38.407Z,10.45
2019-06-26T15:14:05.866Z,10.13
2019-06-26T15:16:33.090Z,7.25
2019-06-26T15:19:00.591Z,9.80
2019-06-26T15:21:27.860Z,7.25
2019-06-26T15:23:55.215Z,8.60
2019-06-26T15:26:22.455Z,13.43
2019-06-26T15:28:49.604Z,8.80
2019-06-26T15:31:16.729Z,8.35
2019-06-26T15:33:44.003Z,10.95
2019-06-26T15:36:11.134Z,9.28
2019-06-26T15:38:38.491Z,12.10
2019-06-26T15:41:05.739Z,8.10
2019-06-26T15:43:32.889Z,8.80
2019-06-26T15:46:00.245Z,11.83
2019-06-26T15:48:27.488Z,10.48
2019-06-26T15:50:54.722Z,10.05
2019-06-26T15:53:21.877Z,8.33
2019-06-26T15:55:49.016Z,9.68
2019-06-26T15:58:16.470Z,8.88
2019-06-26T16:00:44.810Z,10.60
2019-06-26T16:03:12.044Z,8.25
2019-06-26T16:05:39.185Z,13.20
2019-06-26T16:08:06.444Z,9.30
2019-06-26T16:10:34.737Z,11.03
2019-06-26T16:13:02.237Z,8.65
2019-06-26T16:15:29.512Z,9.05
2019-06-26T16:18:08.301Z,12.60
2019-06-26T16:20:35.560Z,8.93
2019-06-26T16:23:02.895Z,10.08
2019-06-26T16:25:30.137Z,8.25
2019-06-26T16:28:05.199Z,8.83
2019-06-26T16:30:26.423Z,9.28
2019-06-26T16:32:56.689Z,12.47
2019-06-26T16:35:22.801Z,12.63
2019-06-26T16:38:04.005Z,7.28
2019-06-26T16:40:31.380Z,9.48
2019-06-26T16:42:58.617Z,9.80
2019-06-26T16:45:25.757Z,7.50
2019-06-26T16:47:53.080Z,7.72
2019-06-26T16:50:20.318Z,7.65
2019-06-26T16:52:49.668Z,12.53
2019-06-26T16:55:17.476Z,9.48
2019-06-26T16:57:44.752Z,9.15
2019-06-26T17:00:15.095Z,8.13
2019-06-26T17:02:42.338Z,15.10
2019-06-26T17:05:10.568Z,9.78
2019-06-26T17:07:37.717Z,14.75
2019-06-26T17:10:06.484Z,9.90
2019-06-26T17:12:33.941Z,8.33
2019-06-26T17:15:04.152Z,9.38
2019-06-26T17:17:30.385Z,9.33
2019-06-26T17:19:57.664Z,11.15
2019-06-26T17:22:24.917Z,11.43
2019-06-26T17:24:52.153Z,10.95
2019-06-26T17:27:19.289Z,13.75
2019-06-26T17:29:46.723Z,14.30
2019-06-26T17:32:14.433Z,7.95
2019-06-26T17:34:41.581Z,11.83
2019-06-26T17:37:08.704Z,13.83
2019-06-26T17:39:35.868Z,14.93
2019-06-26T17:42:03.527Z,11.08
2019-06-26T17:44:30.750Z,18.90
2019-06-26T17:46:57.887Z,8.58
2019-06-26T17:49:25.021Z,13.00
2019-06-26T17:51:52.269Z,9.78
2019-06-26T17:54:19.986Z,15.95
2019-06-26T17:56:47.222Z,10.75
2019-06-26T17:59:14.444Z,13.90
2019-06-26T18:01:41.698Z,16.02
2019-06-26T18:04:08.930Z,10.03
2019-06-26T18:06:36.182Z,12.80
2019-06-26T18:09:06.766Z,12.88
2019-06-26T18:11:34.123Z,14.35
2019-06-26T18:14:01.469Z,15.20
2019-06-26T18:16:28.710Z,12.68
2019-06-26T18:18:55.830Z,12.37
2019-06-26T18:21:22.972Z,11.70
2019-06-26T18:23:50.114Z,15.68
2019-06-26T18:26:17.254Z,15.53
2019-06-26T18:28:44.495Z,10.03
2019-06-26T18:31:11.574Z,12.55
2019-06-26T18:33:46.316Z,10.70
2019-06-26T18:36:16.756Z,11.25
2019-06-26T18:38:43.970Z,9.95
2019-06-26T18:41:11.220Z,11.53
2019-06-26T18:43:38.454Z,10.65
2019-06-26T18:46:05.819Z,10.20
2019-06-26T18:48:37.059Z,14.73
2019-06-26T18:51:13.425Z,19.13
2019-06-26T18:53:53.025Z,16.23
2019-06-26T18:56:09.811Z,12.83
2019-06-26T18:58:36.945Z,15.80
2019-06-26T19:01:05.124Z,14.37
2019-06-26T19:03:32.372Z,11.27
2019-06-26T19:05:59.518Z,13.23
2019-06-26T19:08:26.755Z,13.47
2019-06-26T19:10:54.104Z,11.00
2019-06-26T19:13:21.248Z,13.43
2019-06-26T19:15:48.382Z,13.70
2019-06-26T19:18:15.654Z,12.10
2019-06-26T19:20:42.918Z,10.47
2019-06-26T19:23:11.949Z,11.00
2019-06-26T19:25:39.271Z,11.37
2019-06-26T19:28:06.727Z,9.50
2019-06-26T19:30:34.061Z,10.17
2019-06-26T19:33:01.319Z,9.03
2019-06-26T19:35:28.763Z,9.40
2019-06-26T19:37:55.891Z,12.70
2019-06-26T19:40:24.248Z,9.53
2019-06-26T19:42:51.788Z,10.40
2019-06-26T19:45:19.728Z,9.57
2019-06-26T19:47:47.095Z,9.53
2019-06-26T19:50:14.795Z,9.43
2019-06-26T19:52:41.996Z,9.43
2019-06-26T19:55:09.553Z,12.00
2019-06-26T19:57:36.995Z,10.65
2019-06-26T20:00:05.049Z,8.23
2019-06-26T20:02:32.344Z,9.67
2019-06-26T20:04:59.694Z,9.33
2019-06-26T20:07:28.183Z,8.83
2019-06-26T20:09:55.873Z,8.07
2019-06-26T20:12:23.107Z,11.33
2019-06-26T20:14:50.351Z,9.13
2019-06-26T20:17:17.511Z,9.87
2019-06-26T20:19:45.016Z,9.10
2019-06-26T20:22:12.761Z,11.97
2019-06-26T20:24:44.589Z,9.17
2019-06-26T20:27:09.695Z,9.33
2019-06-26T20:29:44.478Z,8.37
2019-06-26T20:32:11.611Z,8.67
2019-06-26T20:34:38.754Z,9.77
2019-06-26T20:37:06.195Z,9.73
2019-06-26T20:39:33.341Z,11.70
2019-06-26T20:42:02.045Z,9.63
2019-06-26T20:44:29.281Z,10.00
2019-06-26T20:46:56.428Z,9.57
2019-06-26T20:49:23.653Z,9.90
2019-06-26T20:51:50.799Z,10.40
2019-06-26T20:54:17.942Z,10.30
2019-06-26T20:56:45.187Z,11.53
2019-06-26T20:59:12.423Z,10.50
2019-06-26T21:01:39.641Z,10.60
2019-06-26T21:04:06.966Z,11.03
2019-06-26T21:06:34.459Z,12.33
2019-06-26T21:09:01.682Z,11.27
2019-06-26T21:11:29.034Z,10.80
2019-06-26T21:13:56.582Z,10.47
2019-06-26T21:16:23.722Z,10.23
2019-06-26T21:18:50.930Z,10.77
2019-06-26T21:21:18.119Z,12.83
2019-06-26T21:23:45.252Z,9.80
2019-06-26T21:26:12.494Z,11.43
2019-06-26T21:28:39.725Z,12.50
2019-06-26T21:31:06.864Z,11.03
2019-06-26T21:33:44.126Z,11.23
2019-06-26T21:36:11.279Z,12.00
2019-06-26T21:38:38.510Z,11.83
2019-06-26T21:41:05.679Z,11.37
2019-06-26T21:43:32.819Z,11.13
2019-06-26T21:46:00.176Z,10.40
2019-06-26T21:48:27.309Z,11.43
2019-06-26T21:50:54.538Z,11.57
2019-06-26T21:53:21.673Z,11.87
2019-06-26T21:55:48.920Z,13.37
2019-06-26T21:58:16.348Z,11.40
2019-06-26T22:00:44.310Z,13.93
2019-06-26T22:03:11.651Z,10.27
2019-06-26T22:05:39.213Z,11.20
2019-06-26T22:08:06.449Z,11.60
2019-06-26T22:10:33.802Z,10.70
2019-06-26T22:13:01.159Z,11.93
2019-06-26T22:15:39.491Z,11.20
2019-06-26T22:18:07.266Z,12.10
2019-06-26T22:20:34.608Z,12.00
2019-06-26T22:23:01.745Z,12.07
2019-06-26T22:25:29.102Z,11.47
2019-06-26T22:27:56.455Z,11.70
2019-06-26T22:30:24.187Z,11.03
2019-06-26T22:32:51.641Z,11.50
2019-06-26T22:35:19.089Z,12.03
2019-06-26T22:37:46.427Z,11.40
2019-06-26T22:40:14.215Z,12.23
2019-06-26T22:42:41.435Z,12.30
2019-06-26T22:45:09.367Z,12.00
2019-06-26T22:47:36.617Z,10.60
2019-06-26T22:50:05.009Z,10.87
2019-06-26T22:52:32.270Z,11.43
2019-06-26T22:54:59.411Z,11.13
2019-06-26T22:57:26.861Z,11.97
2019-06-26T22:59:54.003Z,11.43
2019-06-26T23:02:21.132Z,11.73
2019-06-26T23:04:48.419Z,11.43
2019-06-26T23:07:15.639Z,12.70
2019-06-26T23:09:42.899Z,12.13
2019-06-26T23:12:10.028Z,11.10
2019-06-26T23:14:37.282Z,10.73
2019-06-26T23:17:04.724Z,11.83
2019-06-26T23:19:31.951Z,11.33
2019-06-26T23:21:59.289Z,12.07
2019-06-26T23:24:26.434Z,11.40
2019-06-26T23:26:53.676Z,11.67
2019-06-26T23:29:20.826Z,10.70
2019-06-26T23:31:48.060Z,11.73
2019-06-26T23:34:15.291Z,11.47
2019-06-26T23:36:42.546Z,11.70
2019-06-26T23:39:09.801Z,11.93
2019-06-26T23:41:37.048Z,11.47
2019-06-26T23:44:04.392Z,11.33
2019-06-26T23:46:31.640Z,11.00
2019-06-26T23:48:58.760Z,11.30
2019-06-26T23:51:25.887Z,11.13
2019-06-26T23:53:53.031Z,11.03
2019-06-26T23:56:20.162Z,10.30
2019-06-26T23:58:47.312Z,10.87
